createdAt,value
2017-09-19T00:01:37.507Z,14.60
2017-09-19T00:04:04.644Z,14.40
2017-09-19T00:06:31.086Z,14.40
2017-09-19T00:08:58.214Z,14.40
2017-09-19T00:11:24.640Z,14.40
2017-09-19T00:13:51.096Z,14.40
2017-09-19T00:16:17.510Z,14.40
2017-09-19T00:18:43.974Z,14.30
2017-09-19T00:21:11.151Z,14.20
2017-09-19T00:23:37.551Z,14.20
2017-09-19T00:26:03.940Z,14.20
2017-09-19T00:28:30.399Z,14.10
2017-09-19T00:30:56.786Z,14.20
2017-09-19T00:33:23.239Z,14.40
2017-09-19T00:35:49.655Z,14.50
2017-09-19T00:38:16.092Z,14.50
2017-09-19T00:40:42.515Z,14.40
2017-09-19T00:43:08.940Z,14.40
2017-09-19T00:45:35.371Z,14.40
2017-09-19T00:48:01.791Z,14.50
2017-09-19T00:50:28.940Z,14.40
2017-09-19T00:52:56.112Z,14.40
2017-09-19T00:55:22.536Z,14.40
2017-09-19T00:57:48.978Z,14.40
2017-09-19T01:00:15.436Z,14.40
2017-09-19T01:02:41.828Z,14.30
2017-09-19T01:05:08.994Z,14.10
2017-09-19T01:07:35.441Z,14.10
2017-09-19T01:10:01.858Z,14.10
2017-09-19T01:12:28.272Z,14.10
2017-09-19T01:14:55.416Z,14.00
2017-09-19T01:17:22.588Z,13.80
2017-09-19T01:19:48.986Z,13.80
2017-09-19T01:22:16.367Z,14.00
2017-09-19T01:24:42.799Z,14.00
2017-09-19T01:27:09.979Z,13.90
2017-09-19T01:29:36.606Z,13.90
2017-09-19T01:32:03.080Z,13.90
2017-09-19T01:34:30.227Z,13.90
2017-09-19T01:36:56.623Z,13.90
2017-09-19T01:39:23.079Z,13.90
2017-09-19T01:41:49.455Z,13.80
2017-09-19T01:44:16.642Z,13.90
2017-09-19T01:46:43.027Z,13.90
2017-09-19T01:49:09.439Z,13.80
2017-09-19T01:51:35.819Z,13.70
2017-09-19T01:54:02.928Z,14.00
2017-09-19T01:56:30.085Z,13.80
2017-09-19T01:58:56.483Z,13.80
2017-09-19T02:01:23.087Z,13.70
2017-09-19T02:03:49.522Z,13.80
2017-09-19T02:06:15.926Z,13.80
2017-09-19T02:08:42.395Z,13.80
2017-09-19T02:11:08.851Z,13.80
2017-09-19T02:13:35.293Z,13.80
2017-09-19T02:16:01.721Z,13.80
2017-09-19T02:18:28.216Z,13.80
2017-09-19T02:20:55.372Z,13.90
2017-09-19T02:23:21.779Z,13.90
2017-09-19T02:25:48.159Z,14.00
2017-09-19T02:28:14.708Z,13.90
2017-09-19T02:30:42.524Z,14.10
2017-09-19T02:33:09.725Z,14.10
2017-09-19T02:35:36.152Z,14.10
2017-09-19T02:38:02.586Z,14.20
2017-09-19T02:40:29.006Z,14.20
2017-09-19T02:42:55.395Z,14.30
2017-09-19T02:45:22.527Z,14.20
2017-09-19T02:47:49.101Z,14.20
2017-09-19T02:50:15.501Z,14.20
2017-09-19T02:52:41.888Z,14.30
2017-09-19T02:55:08.371Z,14.20
2017-09-19T02:57:34.900Z,14.20
2017-09-19T03:00:01.298Z,14.10
2017-09-19T03:02:27.680Z,14.00
2017-09-19T03:04:54.864Z,14.00
2017-09-19T03:07:21.319Z,14.00
2017-09-19T03:09:47.919Z,14.00
2017-09-19T03:12:15.052Z,14.10
2017-09-19T03:14:42.222Z,14.10
2017-09-19T03:17:08.707Z,14.10
2017-09-19T03:19:35.131Z,14.00
2017-09-19T03:22:01.556Z,14.10
2017-09-19T03:24:27.939Z,14.00
2017-09-19T03:26:55.099Z,14.00
2017-09-19T03:29:21.530Z,14.10
2017-09-19T03:31:48.688Z,14.00
2017-09-19T03:34:15.428Z,14.00
2017-09-19T03:36:41.858Z,14.00
2017-09-19T03:39:08.252Z,13.90
2017-09-19T03:41:34.692Z,13.80
2017-09-19T03:44:01.146Z,13.90
2017-09-19T03:46:28.291Z,13.80
2017-09-19T03:48:55.459Z,13.80
2017-09-19T03:51:22.608Z,13.70
2017-09-19T03:53:49.711Z,13.70
2017-09-19T03:56:16.098Z,13.70
2017-09-19T03:58:42.515Z,13.60
2017-09-19T04:01:09.664Z,13.80
2017-09-19T04:03:36.851Z,13.70
2017-09-19T04:06:03.263Z,13.70
2017-09-19T04:08:29.690Z,13.70
2017-09-19T04:10:56.218Z,13.70
2017-09-19T04:13:23.355Z,13.60
2017-09-19T04:15:50.488Z,13.50
2017-09-19T04:18:16.980Z,13.50
2017-09-19T04:20:43.375Z,13.50
2017-09-19T04:23:10.734Z,13.20
2017-09-19T04:25:37.891Z,13.20
2017-09-19T04:28:05.047Z,13.30
2017-09-19T04:30:31.491Z,13.30
2017-09-19T04:32:57.931Z,13.20
2017-09-19T04:35:24.319Z,13.20
2017-09-19T04:37:51.483Z,13.00
2017-09-19T04:40:18.606Z,13.00
2017-09-19T04:42:45.068Z,13.00
2017-09-19T04:45:11.512Z,13.00
2017-09-19T04:47:37.932Z,12.90
2017-09-19T04:50:05.084Z,12.70
2017-09-19T04:52:32.902Z,12.80
2017-09-19T04:55:00.283Z,12.90
2017-09-19T04:57:27.490Z,12.80
2017-09-19T04:59:53.880Z,12.80
2017-09-19T05:02:21.067Z,12.70
2017-09-19T05:04:47.472Z,12.70
2017-09-19T05:07:13.965Z,12.60
2017-09-19T05:09:40.391Z,12.60
2017-09-19T05:12:06.782Z,12.80
2017-09-19T05:14:33.195Z,12.80
2017-09-19T05:17:00.303Z,12.70
2017-09-19T05:19:26.728Z,12.70
2017-09-19T05:21:53.147Z,12.60
2017-09-19T05:24:19.523Z,12.70
2017-09-19T05:26:45.932Z,12.70
2017-09-19T05:29:12.375Z,12.60
2017-09-19T05:31:38.775Z,12.50
2017-09-19T05:34:06.104Z,12.50
2017-09-19T05:36:32.575Z,12.40
2017-09-19T05:38:58.966Z,12.30
2017-09-19T05:41:26.174Z,12.70
2017-09-19T05:43:52.795Z,12.60
2017-09-19T05:46:19.179Z,12.90
2017-09-19T05:48:46.312Z,13.20
2017-09-19T05:51:12.759Z,13.20
2017-09-19T05:53:39.884Z,13.30
2017-09-19T05:56:06.311Z,13.30
2017-09-19T05:58:32.748Z,13.20
2017-09-19T06:00:59.918Z,12.90
2017-09-19T06:03:26.323Z,12.90
2017-09-19T06:05:52.736Z,12.80
2017-09-19T06:08:19.130Z,12.80
2017-09-19T06:10:46.270Z,12.80
2017-09-19T06:13:13.406Z,12.50
2017-09-19T06:15:39.798Z,12.50
2017-09-19T06:18:06.208Z,12.60
2017-09-19T06:20:32.658Z,12.70
2017-09-19T06:22:59.075Z,12.80
2017-09-19T06:25:25.507Z,12.90
2017-09-19T06:27:51.992Z,12.90
2017-09-19T06:30:18.407Z,12.90
2017-09-19T06:32:44.807Z,12.90
2017-09-19T06:35:11.255Z,12.90
2017-09-19T06:37:37.758Z,12.80
2017-09-19T06:40:04.899Z,12.70
2017-09-19T06:42:31.328Z,12.70
2017-09-19T06:44:58.460Z,12.70
2017-09-19T06:47:24.892Z,12.70
2017-09-19T06:49:51.475Z,12.60
2017-09-19T06:52:17.884Z,12.60
2017-09-19T06:54:45.006Z,12.80
2017-09-19T06:57:11.459Z,12.80
2017-09-19T06:59:37.865Z,12.80
2017-09-19T07:02:04.471Z,12.90
2017-09-19T07:04:30.898Z,13.10
2017-09-19T07:06:57.327Z,13.00
2017-09-19T07:09:23.747Z,13.10
2017-09-19T07:11:50.897Z,13.00
2017-09-19T07:14:18.087Z,12.80
2017-09-19T07:16:44.496Z,12.80
2017-09-19T07:19:10.874Z,12.70
2017-09-19T07:21:37.460Z,12.70
2017-09-19T07:24:03.862Z,12.60
2017-09-19T07:26:30.248Z,12.60
2017-09-19T07:28:56.672Z,12.80
2017-09-19T07:31:23.044Z,12.80
2017-09-19T07:33:49.506Z,12.80
2017-09-19T07:36:15.904Z,12.70
2017-09-19T07:38:42.288Z,12.80
2017-09-19T07:41:08.815Z,12.70
2017-09-19T07:43:35.205Z,12.60
2017-09-19T07:46:01.603Z,12.40
2017-09-19T07:48:28.003Z,12.50
2017-09-19T07:50:55.163Z,12.50
2017-09-19T07:53:21.617Z,12.50
2017-09-19T07:55:48.059Z,12.20
2017-09-19T07:58:14.674Z,12.20
2017-09-19T08:00:41.083Z,12.30
2017-09-19T08:03:08.214Z,12.30
2017-09-19T08:05:34.627Z,12.30
2017-09-19T08:08:01.075Z,12.40
2017-09-19T08:10:27.481Z,12.30
2017-09-19T08:12:53.883Z,12.30
2017-09-19T08:15:20.340Z,12.20
2017-09-19T08:17:46.780Z,12.30
2017-09-19T08:20:13.198Z,12.30
2017-09-19T08:22:39.632Z,12.30
2017-09-19T08:27:42.928Z,12.20
2017-09-19T08:30:09.468Z,12.40
2017-09-19T08:32:43.396Z,12.50
2017-09-19T08:48:50.670Z,12.90
2017-09-19T08:51:55.158Z,12.90
2017-09-19T09:03:13.049Z,13.20
2017-09-19T09:05:39.521Z,13.20
2017-09-19T09:08:12.219Z,13.10
2017-09-19T09:10:39.398Z,13.10
2017-09-19T09:13:17.155Z,13.20
2017-09-19T09:15:56.167Z,13.20
2017-09-19T09:18:28.224Z,13.20
2017-09-19T09:20:56.947Z,13.30
2017-09-19T09:23:23.586Z,13.10
2017-09-19T09:25:50.659Z,13.00
2017-09-19T09:28:17.051Z,13.00
2017-09-19T09:30:53.411Z,12.90
2017-09-19T09:33:20.639Z,12.90
2017-09-19T09:35:48.551Z,13.10
2017-09-19T09:38:15.790Z,13.10
2017-09-19T09:40:51.427Z,13.10
2017-09-19T09:45:58.405Z,13.10
2017-09-19T09:48:24.923Z,13.00
2017-09-19T09:50:51.806Z,13.00
2017-09-19T09:53:18.947Z,13.10
2017-09-19T09:55:45.354Z,13.00
2017-09-19T10:01:12.966Z,13.20
2017-09-19T10:03:39.606Z,13.40
2017-09-19T10:06:06.020Z,13.40
2017-09-19T10:08:32.707Z,13.20
2017-09-19T10:11:00.163Z,13.00
2017-09-19T10:13:26.711Z,12.90
2017-09-19T10:15:57.334Z,13.00
2017-09-19T10:18:23.819Z,12.70
2017-09-19T10:20:51.108Z,12.70
2017-09-19T10:23:22.336Z,12.70
2017-09-19T10:25:53.429Z,12.60
2017-09-19T10:28:19.853Z,12.50
2017-09-19T10:30:46.502Z,12.50
2017-09-19T10:33:12.895Z,12.70
2017-09-19T10:35:39.464Z,12.70
2017-09-19T10:38:06.112Z,12.80
2017-09-19T10:43:35.708Z,12.80
2017-09-19T10:46:02.472Z,12.70
2017-09-19T10:48:30.827Z,12.70
2017-09-19T10:50:57.821Z,12.70
2017-09-19T10:53:25.230Z,12.70
2017-09-19T10:55:56.299Z,12.90
2017-09-19T10:58:24.472Z,12.90
2017-09-19T11:00:52.515Z,12.80
2017-09-19T11:03:19.391Z,12.80
2017-09-19T11:05:45.922Z,12.80
2017-09-19T11:08:17.567Z,12.80
2017-09-19T11:10:44.103Z,12.80
2017-09-19T11:13:11.470Z,12.80
2017-09-19T11:15:53.360Z,12.80
2017-09-19T11:18:20.996Z,12.70
2017-09-19T11:20:49.144Z,12.70
2017-09-19T11:23:16.622Z,12.80
2017-09-19T11:25:52.935Z,12.80
2017-09-19T11:28:22.981Z,12.80
2017-09-19T15:17:51.381Z,13.40
2017-09-19T15:52:57.907Z,13.10
